Time;durP1;ratioP1;P1;durP2;ratioP2;P2;SDS_P1;SDS_P2;PMS_P1;PMS_P2;Temp;Humidity;BMP_temperature;BMP_pressure;BME280_temperature;BME280_humidity;BME280_pressure;Samples;Min_cycle;Max_cycle;Signal;HPM_P1;HPM_P2
2024/01/05 00:01:21;;;;;;;2.90;2.70;;;3.40;99.90;;;;;;4935112;28;20210;-59
2024/01/05 00:03:47;;;;;;;3.17;2.50;;;3.40;99.90;;;;;;4936258;28;20198;-63
2024/01/05 00:06:12;;;;;;;7.23;2.80;;;3.30;99.90;;;;;;4933485;28;20206;-62
2024/01/05 00:08:38;;;;;;;3.13;2.57;;;3.30;99.90;;;;;;4999092;28;20205;-65
2024/01/05 00:11:03;;;;;;;3.40;2.23;;;3.40;99.90;;;;;;4934781;28;20268;-55
2024/01/05 00:13:29;;;;;;;3.23;1.93;;;3.50;99.90;;;;;;4934034;28;20201;-54
2024/01/05 00:15:54;;;;;;;4.70;2.30;;;3.50;99.90;;;;;;4926314;28;20274;-53
2024/01/05 00:18:20;;;;;;;3.60;2.60;;;3.60;99.90;;;;;;4933876;28;20218;-53
2024/01/05 00:20:45;;;;;;;2.87;2.57;;;3.60;99.90;;;;;;4934898;28;20234;-55
2024/01/05 00:23:11;;;;;;;3.37;2.83;;;3.50;99.90;;;;;;4933178;28;20213;-56
2024/01/05 00:25:36;;;;;;;5.77;3.17;;;3.60;99.90;;;;;;4935467;28;20976;-61
2024/01/05 00:28:02;;;;;;;5.37;3.60;;;3.40;99.90;;;;;;4923999;28;20194;-53
2024/01/05 00:30:27;;;;;;;5.10;3.50;;;3.60;99.90;;;;;;4928200;28;20198;-59
2024/01/05 00:32:53;;;;;;;6.00;4.10;;;3.80;99.90;;;;;;4904115;28;20245;-54
2024/01/05 00:35:18;;;;;;;5.07;4.03;;;3.80;99.90;;;;;;4926479;28;20255;-54
2024/01/05 00:37:44;;;;;;;4.93;4.33;;;3.70;99.90;;;;;;4924131;28;20223;-53
2024/01/05 00:40:10;;;;;;;4.20;3.70;;;3.80;99.90;;;;;;4932753;28;20730;-55
2024/01/05 00:42:35;;;;;;;6.47;4.47;;;3.70;99.90;;;;;;4931360;28;20253;-53
2024/01/05 00:45:00;;;;;;;5.70;4.87;;;3.70;99.90;;;;;;4910135;28;20194;-53
2024/01/05 00:47:26;;;;;;;7.47;4.03;;;3.80;99.90;;;;;;4931207;28;20367;-53
2024/01/05 00:49:51;;;;;;;4.30;3.90;;;3.70;99.90;;;;;;4916642;28;20660;-55
2024/01/05 00:52:17;;;;;;;4.93;4.13;;;3.50;99.90;;;;;;4928015;29;20241;-55
2024/01/05 00:54:43;;;;;;;5.20;4.23;;;3.60;99.90;;;;;;4925868;28;20335;-55
2024/01/05 00:57:09;;;;;;;4.07;3.40;;;3.60;99.90;;;;;;4927290;28;20238;-54
2024/01/05 00:59:34;;;;;;;4.17;3.77;;;3.50;99.90;;;;;;4927135;28;20267;-55
2024/01/05 01:02:00;;;;;;;4.37;3.50;;;3.60;99.90;;;;;;4931988;28;20635;-53
2024/01/05 01:04:26;;;;;;;3.80;3.37;;;3.50;99.90;;;;;;4933657;28;20271;-61
2024/01/05 01:06:51;;;;;;;5.00;4.03;;;3.60;99.90;;;;;;4932290;28;20203;-54
2024/01/05 01:09:16;;;;;;;4.57;3.60;;;3.50;99.90;;;;;;4917622;28;20291;-53
2024/01/05 01:11:42;;;;;;;3.97;3.53;;;3.50;99.90;;;;;;4931737;28;20606;-53
2024/01/05 01:14:07;;;;;;;3.90;3.43;;;3.50;99.90;;;;;;4922601;28;20206;-53
2024/01/05 01:16:33;;;;;;;5.13;3.60;;;3.40;99.90;;;;;;4921057;28;21072;-53
2024/01/05 01:19:02;;;;;;;4.00;3.60;;;3.30;99.90;;;;;;4930476;28;20203;-58
2024/01/05 01:21:28;;;;;;;4.37;3.00;;;3.30;99.90;;;;;;4931261;28;20218;-54
2024/01/05 01:23:53;;;;;;;3.33;2.90;;;3.20;99.90;;;;;;4926737;28;20214;-54
2024/01/05 01:26:19;;;;;;;2.73;2.53;;;3.20;99.90;;;;;;4906413;28;20206;-54
2024/01/05 01:28:44;;;;;;;4.37;3.03;;;3.20;99.90;;;;;;4926047;28;20278;-52
2024/01/05 01:31:09;;;;;;;3.67;3.37;;;3.00;99.90;;;;;;4928991;28;20997;-55
2024/01/05 01:33:35;;;;;;;3.27;2.97;;;3.00;99.90;;;;;;4929888;28;20231;-52
2024/01/05 01:36:00;;;;;;;5.93;3.63;;;3.00;99.90;;;;;;4926718;28;20287;-53
2024/01/05 01:38:26;;;;;;;4.00;3.47;;;3.10;99.90;;;;;;4932154;28;20243;-56
2024/01/05 01:40:54;;;;;;;4.93;2.83;;;3.10;99.90;;;;;;4925068;28;20570;-54
2024/01/05 01:43:22;;;;;;;3.30;3.00;;;3.10;99.90;;;;;;4926042;28;20198;-55
2024/01/05 01:45:48;;;;;;;7.87;3.47;;;3.20;99.90;;;;;;4929717;28;20213;-54
2024/01/05 01:48:16;;;;;;;3.57;3.10;;;3.20;99.90;;;;;;4929676;28;20598;-55
2024/01/05 01:50:41;;;;;;;4.53;3.90;;;3.20;99.90;;;;;;4919535;28;20279;-68
2024/01/05 01:53:07;;;;;;;5.10;3.60;;;3.10;99.90;;;;;;4922340;28;20222;-62
2024/01/05 01:55:33;;;;;;;4.83;3.70;;;3.10;99.90;;;;;;4930065;28;20214;-62
2024/01/05 01:57:58;;;;;;;5.87;3.47;;;3.10;99.90;;;;;;4931582;28;20711;-63
2024/01/05 02:00:24;;;;;;;5.43;2.80;;;3.20;99.90;;;;;;4929083;28;20309;-62
2024/01/05 02:02:53;;;;;;;3.07;2.77;;;3.20;99.90;;;;;;4924592;28;20218;-61
2024/01/05 02:05:19;;;;;;;5.10;3.33;;;3.20;99.90;;;;;;4926071;28;20214;-53
2024/01/05 02:07:45;;;;;;;4.10;2.70;;;3.10;99.90;;;;;;4927904;28;20205;-53
2024/01/05 02:10:10;;;;;;;3.37;3.03;;;3.20;99.90;;;;;;4934492;28;20215;-53
2024/01/05 02:12:36;;;;;;;3.80;2.97;;;3.10;99.90;;;;;;4924286;28;20206;-53
2024/01/05 02:15:01;;;;;;;3.47;2.80;;;3.10;99.90;;;;;;4928878;28;20212;-62
2024/01/05 02:17:31;;;;;;;6.70;3.37;;;3.10;99.90;;;;;;4928137;28;20210;-53
2024/01/05 02:19:57;;;;;;;5.80;3.63;;;3.10;99.90;;;;;;4928877;28;20247;-54
2024/01/05 02:22:26;;;;;;;4.63;2.83;;;3.00;99.90;;;;;;4926221;28;20217;-54
2024/01/05 02:24:52;;;;;;;5.23;3.60;;;3.00;99.90;;;;;;4925033;28;20476;-55
2024/01/05 02:27:17;;;;;;;5.27;3.90;;;2.90;99.90;;;;;;4926689;28;20711;-54
2024/01/05 02:29:43;;;;;;;7.37;3.63;;;3.10;99.90;;;;;;4932401;28;20209;-54
2024/01/05 02:32:08;;;;;;;4.43;3.47;;;3.20;99.90;;;;;;4926487;28;20256;-52
2024/01/05 02:34:34;;;;;;;3.10;2.90;;;3.30;99.90;;;;;;4930719;28;21122;-56
2024/01/05 02:36:59;;;;;;;3.83;3.50;;;3.20;99.90;;;;;;4920189;28;20268;-52
2024/01/05 02:39:25;;;;;;;3.77;3.37;;;3.20;99.90;;;;;;4939189;28;20297;-52
2024/01/05 02:41:50;;;;;;;3.10;2.83;;;3.10;99.90;;;;;;4939241;28;20593;-52
2024/01/05 02:44:16;;;;;;;3.03;2.70;;;3.20;99.90;;;;;;4937771;28;20621;-52
2024/01/05 02:46:41;;;;;;;4.07;3.67;;;3.20;99.90;;;;;;4936021;28;20218;-52
2024/01/05 02:49:07;;;;;;;4.40;3.30;;;3.30;99.90;;;;;;4939285;28;20221;-52
2024/01/05 02:51:32;;;;;;;6.57;3.27;;;3.40;99.90;;;;;;4927854;28;20272;-53
2024/01/05 02:53:57;;;;;;;3.63;2.90;;;3.40;99.90;;;;;;4932030;28;20271;-52
2024/01/05 02:56:23;;;;;;;5.23;3.13;;;3.20;99.90;;;;;;4925420;28;20802;-52
2024/01/05 02:58:50;;;;;;;5.63;3.23;;;3.00;99.90;;;;;;4924467;28;20195;-52
2024/01/05 03:01:16;;;;;;;3.13;2.83;;;3.00;99.90;;;;;;4909854;28;20262;-53
2024/01/05 03:03:46;;;;;;;5.20;3.33;;;3.00;99.90;;;;;;4934765;28;20684;-52
2024/01/05 03:06:15;;;;;;;3.83;3.47;;;3.00;99.90;;;;;;4934121;28;20208;-53
2024/01/05 03:08:40;;;;;;;4.00;3.27;;;3.10;99.90;;;;;;4937072;28;20202;-53
2024/01/05 03:11:06;;;;;;;4.10;3.03;;;3.20;99.90;;;;;;4933326;28;20992;-52
2024/01/05 03:13:31;;;;;;;4.53;3.23;;;3.30;99.90;;;;;;4931383;28;20203;-53
2024/01/05 03:15:57;;;;;;;2.87;2.60;;;3.30;99.90;;;;;;4940382;28;20209;-53
2024/01/05 03:18:22;;;;;;;4.77;2.73;;;3.40;99.90;;;;;;4935905;28;20210;-53
2024/01/05 03:20:48;;;;;;;3.07;2.53;;;3.10;99.90;;;;;;4939728;28;20205;-53
2024/01/05 03:23:14;;;;;;;4.03;3.07;;;2.90;99.90;;;;;;4920160;28;20232;-54
2024/01/05 03:25:44;;;;;;;4.30;3.07;;;2.80;99.90;;;;;;4937902;28;21031;-53
2024/01/05 03:28:10;;;;;;;3.63;3.33;;;2.90;99.90;;;;;;4939367;28;20204;-53
2024/01/05 03:30:39;;;;;;;4.20;3.00;;;2.90;99.90;;;;;;4941696;28;20231;-53
2024/01/05 03:33:05;;;;;;;3.30;3.00;;;2.90;99.90;;;;;;4929284;28;20217;-52
2024/01/05 03:35:31;;;;;;;3.93;3.50;;;2.90;99.90;;;;;;4936923;28;20762;-52
2024/01/05 03:37:56;;;;;;;3.33;3.03;;;2.90;99.90;;;;;;4934580;28;20195;-53
2024/01/05 03:40:22;;;;;;;2.87;2.67;;;3.00;99.90;;;;;;4936745;28;20225;-53
2024/01/05 03:42:48;;;;;;;3.60;3.30;;;3.00;99.90;;;;;;4935386;28;20220;-53
2024/01/05 03:45:13;;;;;;;2.80;2.60;;;3.00;99.90;;;;;;4940057;28;20206;-53
2024/01/05 03:47:39;;;;;;;4.10;3.20;;;2.90;99.90;;;;;;4931445;28;20304;-54
2024/01/05 03:50:05;;;;;;;2.63;2.43;;;2.90;99.90;;;;;;4926234;28;20217;-53
2024/01/05 03:52:31;;;;;;;5.10;2.90;;;3.00;99.90;;;;;;4932416;28;20789;-53
2024/01/05 03:54:56;;;;;;;4.17;2.40;;;2.90;99.90;;;;;;4957646;28;20242;-54
2024/01/05 03:57:22;;;;;;;3.43;2.80;;;2.70;99.90;;;;;;4936506;28;20295;-53
2024/01/05 03:59:47;;;;;;;5.97;3.53;;;2.60;99.90;;;;;;4933728;28;20559;-52
2024/01/05 04:02:13;;;;;;;3.07;2.77;;;2.60;99.90;;;;;;4940821;28;20209;-53
2024/01/05 04:04:42;;;;;;;5.23;3.33;;;2.50;99.90;;;;;;4942435;28;20698;-54
2024/01/05 04:07:07;;;;;;;3.50;2.83;;;2.50;99.90;;;;;;4921783;28;20201;-53
2024/01/05 04:09:32;;;;;;;3.40;3.10;;;2.60;99.90;;;;;;4943765;28;20235;-63
2024/01/05 04:11:58;;;;;;;3.30;3.00;;;2.60;99.90;;;;;;4941828;28;20209;-52
2024/01/05 04:14:24;;;;;;;4.07;3.67;;;2.60;99.90;;;;;;4933976;28;20836;-61
2024/01/05 04:16:50;;;;;;;7.13;3.13;;;2.60;99.90;;;;;;4941994;28;21045;-53
2024/01/05 04:19:15;;;;;;;3.73;2.80;;;2.50;99.90;;;;;;4938553;28;20687;-53
2024/01/05 04:21:42;;;;;;;4.13;3.03;;;2.40;99.90;;;;;;4933055;28;20209;-52
2024/01/05 04:24:08;;;;;;;4.60;3.40;;;2.40;99.90;;;;;;4935697;28;20286;-53
2024/01/05 04:26:33;;;;;;;6.17;3.83;;;2.50;99.90;;;;;;4929702;28;20924;-53
2024/01/05 04:28:59;;;;;;;3.37;3.07;;;2.50;99.90;;;;;;4933076;28;20214;-54
2024/01/05 04:31:24;;;;;;;4.30;3.40;;;2.60;99.90;;;;;;4918237;28;20213;-54
2024/01/05 04:33:50;;;;;;;4.13;3.20;;;2.60;99.90;;;;;;4932232;28;20205;-54
2024/01/05 04:36:15;;;;;;;3.90;3.03;;;2.80;99.90;;;;;;4933091;28;20230;-53
2024/01/05 04:38:42;;;;;;;3.20;2.90;;;3.00;99.90;;;;;;4939041;28;20205;-53
2024/01/05 04:41:07;;;;;;;4.20;3.07;;;3.00;99.90;;;;;;4925803;28;20221;-52
2024/01/05 04:43:33;;;;;;;4.60;3.20;;;2.90;99.90;;;;;;4939049;28;20306;-52
2024/01/05 04:46:00;;;;;;;7.33;3.40;;;2.80;99.90;;;;;;4923149;28;20272;-53
2024/01/05 04:48:25;;;;;;;2.80;2.60;;;2.70;99.90;;;;;;4932197;28;20202;-53
2024/01/05 04:50:51;;;;;;;3.83;3.50;;;2.70;99.90;;;;;;4927452;28;20227;-53
2024/01/05 04:53:17;;;;;;;3.47;3.17;;;2.50;99.90;;;;;;4918756;28;20337;-53
2024/01/05 04:55:42;;;;;;;4.33;3.57;;;2.40;99.90;;;;;;4935572;28;20763;-53
2024/01/05 04:58:08;;;;;;;4.63;3.30;;;2.40;99.90;;;;;;4937756;28;20205;-52
2024/01/05 05:00:33;;;;;;;6.03;3.50;;;2.40;99.90;;;;;;4941423;28;20288;-53
2024/01/05 05:02:59;;;;;;;3.87;3.40;;;2.40;99.90;;;;;;4935853;28;20350;-53
2024/01/05 05:05:25;;;;;;;4.57;3.27;;;2.40;99.90;;;;;;4928363;28;20667;-52
2024/01/05 05:07:52;;;;;;;4.13;3.83;;;2.40;99.90;;;;;;4927671;29;20214;-52
2024/01/05 05:10:18;;;;;;;4.17;3.20;;;2.20;99.90;;;;;;4926607;28;20206;-53
2024/01/05 05:12:43;;;;;;;3.20;3.00;;;2.20;99.90;;;;;;4936801;28;20955;-54
2024/01/05 05:15:10;;;;;;;3.50;2.93;;;2.30;99.90;;;;;;4924584;28;20212;-53
2024/01/05 05:17:36;;;;;;;6.37;3.73;;;2.30;99.90;;;;;;4926140;28;20292;-53
2024/01/05 05:20:03;;;;;;;4.37;3.93;;;2.30;99.90;;;;;;4932941;28;20998;-53
2024/01/05 05:22:28;;;;;;;4.20;3.80;;;2.20;99.90;;;;;;4929386;28;20205;-53
2024/01/05 05:24:54;;;;;;;4.30;3.47;;;2.10;99.90;;;;;;4942299;28;20879;-53
2024/01/05 05:27:20;;;;;;;3.93;3.53;;;2.20;99.90;;;;;;4932518;28;20196;-54
2024/01/05 05:29:47;;;;;;;3.53;2.67;;;2.20;99.90;;;;;;4937959;28;20219;-53
2024/01/05 05:32:13;;;;;;;4.53;4.03;;;2.20;99.90;;;;;;4934808;28;20236;-53
2024/01/05 05:34:40;;;;;;;9.07;4.07;;;2.30;99.90;;;;;;4935948;28;20252;-53
2024/01/05 05:37:05;;;;;;;3.70;3.30;;;2.20;99.90;;;;;;4936467;28;20713;-53
2024/01/05 05:39:31;;;;;;;4.60;3.73;;;2.20;99.90;;;;;;4937190;28;20253;-53
2024/01/05 05:41:57;;;;;;;5.97;4.40;;;2.20;99.90;;;;;;4937302;28;20201;-55
2024/01/05 05:44:22;;;;;;;6.87;4.27;;;2.20;99.90;;;;;;4937725;28;20208;-54
2024/01/05 05:46:48;;;;;;;5.37;3.77;;;2.30;99.90;;;;;;4929146;28;20667;-54
2024/01/05 05:49:13;;;;;;;4.57;3.20;;;2.40;99.90;;;;;;4936342;28;20245;-54
2024/01/05 05:51:39;;;;;;;4.43;4.03;;;2.30;99.90;;;;;;4937121;28;20629;-54
2024/01/05 05:54:04;;;;;;;6.27;3.87;;;2.20;99.90;;;;;;4936514;28;20219;-54
2024/01/05 05:56:30;;;;;;;4.53;3.93;;;2.00;99.90;;;;;;4936708;28;20222;-53
2024/01/05 05:58:56;;;;;;;6.20;5.20;;;2.00;99.90;;;;;;4931887;28;20222;-53
2024/01/05 06:01:23;;;;;;;6.30;4.73;;;2.00;99.90;;;;;;4940732;28;20220;-53
2024/01/05 06:03:49;;;;;;;6.07;4.33;;;2.00;99.90;;;;;;4932971;28;20620;-53
2024/01/05 06:06:19;;;;;;;5.00;4.50;;;2.10;99.90;;;;;;4940733;28;20216;-53
2024/01/05 06:08:45;;;;;;;3.37;2.93;;;2.10;99.90;;;;;;4938491;28;20755;-53
2024/01/05 06:11:14;;;;;;;6.40;3.63;;;2.00;99.90;;;;;;4938598;28;20198;-53
2024/01/05 06:13:39;;;;;;;3.93;3.53;;;1.90;99.90;;;;;;4940457;28;20211;-53
2024/01/05 06:16:05;;;;;;;4.90;3.77;;;1.90;99.90;;;;;;4919484;28;20224;-53
2024/01/05 06:18:30;;;;;;;4.90;4.37;;;1.80;99.90;;;;;;4939318;28;20756;-53
2024/01/05 06:20:56;;;;;;;7.57;4.10;;;1.80;99.90;;;;;;4938952;28;20608;-53
2024/01/05 06:23:21;;;;;;;5.73;3.60;;;1.80;99.90;;;;;;4936459;28;20218;-52
2024/01/05 06:25:47;;;;;;;3.93;3.27;;;1.80;99.90;;;;;;4930410;28;20270;-53
2024/01/05 06:28:13;;;;;;;5.10;3.67;;;1.80;99.90;;;;;;4917954;28;20211;-53
2024/01/05 06:30:38;;;;;;;5.53;4.03;;;1.70;99.90;;;;;;4933451;28;20201;-53
2024/01/05 06:33:06;;;;;;;4.07;3.40;;;1.70;99.90;;;;;;4941230;28;20200;-52
2024/01/05 06:35:32;;;;;;;3.73;3.43;;;1.70;99.90;;;;;;4930657;28;20204;-52
2024/01/05 06:37:57;;;;;;;5.50;3.30;;;1.70;99.90;;;;;;4928042;29;20236;-52
2024/01/05 06:40:23;;;;;;;5.20;4.37;;;1.60;99.90;;;;;;4924719;28;20815;-53
2024/01/05 06:42:49;;;;;;;3.20;2.90;;;1.60;99.90;;;;;;4909069;28;20284;-53
2024/01/05 06:45:15;;;;;;;5.03;4.00;;;1.80;99.90;;;;;;4932917;28;20854;-53
2024/01/05 06:47:40;;;;;;;9.27;3.60;;;1.80;99.90;;;;;;4933558;28;20201;-53
2024/01/05 06:50:07;;;;;;;4.47;3.93;;;1.80;99.90;;;;;;4920103;28;20231;-53
2024/01/05 06:52:33;;;;;;;4.37;3.50;;;1.70;99.90;;;;;;4933613;28;20216;-52
2024/01/05 06:54:59;;;;;;;4.67;4.27;;;1.70;99.90;;;;;;4928437;28;20227;-55
2024/01/05 06:57:25;;;;;;;7.27;3.97;;;1.60;99.90;;;;;;4939550;28;20636;-54
2024/01/05 06:59:51;;;;;;;5.93;3.87;;;1.60;99.90;;;;;;4942554;28;20217;-53
2024/01/05 07:02:16;;;;;;;7.07;4.27;;;1.60;99.90;;;;;;4928378;28;20233;-53
2024/01/05 07:04:42;;;;;;;5.60;3.57;;;1.60;99.90;;;;;;4923281;28;20200;-54
2024/01/05 07:07:07;;;;;;;4.20;3.83;;;1.50;99.90;;;;;;4929841;28;20582;-53
2024/01/05 07:09:33;;;;;;;6.17;4.83;;;1.60;99.90;;;;;;4938344;28;20688;-54
2024/01/05 07:11:59;;;;;;;4.63;4.23;;;1.60;99.90;;;;;;4938589;28;20683;-54
2024/01/05 07:14:27;;;;;;;7.13;4.57;;;1.50;99.90;;;;;;4938931;28;20208;-54
2024/01/05 07:16:55;;;;;;;10.10;4.97;;;1.40;99.90;;;;;;4937650;28;20664;-53
2024/01/05 07:19:20;;;;;;;6.00;4.37;;;1.30;99.90;;;;;;4938917;28;20204;-54
2024/01/05 07:21:47;;;;;;;6.90;5.10;;;1.40;99.90;;;;;;4944898;28;20707;-54
2024/01/05 07:24:16;;;;;;;5.53;4.23;;;1.40;99.90;;;;;;4936243;28;20210;-54
2024/01/05 07:26:44;;;;;;;8.37;5.47;;;1.50;99.90;;;;;;4939671;28;20194;-53
2024/01/05 07:29:10;;;;;;;6.23;4.87;;;1.50;99.90;;;;;;4935628;28;20221;-53
2024/01/05 07:31:35;;;;;;;5.93;4.77;;;1.50;99.90;;;;;;4940850;28;20213;-54
2024/01/05 07:34:02;;;;;;;7.70;5.97;;;1.50;99.90;;;;;;4935831;28;20210;-53
2024/01/05 07:36:28;;;;;;;7.60;5.20;;;1.60;99.90;;;;;;4920191;29;20221;-54
2024/01/05 07:38:58;;;;;;;6.37;5.43;;;1.60;99.90;;;;;;4934450;28;20215;-60
2024/01/05 07:41:24;;;;;;;5.50;4.80;;;1.60;99.90;;;;;;4907059;28;20312;-61
2024/01/05 07:43:50;;;;;;;6.83;5.67;;;1.60;99.90;;;;;;4913682;28;20203;-53
2024/01/05 07:46:15;;;;;;;7.27;5.80;;;1.70;99.90;;;;;;5023014;23;20645;-54
2024/01/05 07:48:41;;;;;;;6.27;5.37;;;1.70;99.90;;;;;;4961600;28;20207;-61
2024/01/05 07:51:07;;;;;;;6.90;5.30;;;1.60;99.90;;;;;;4955404;28;20208;-55
2024/01/05 07:53:32;;;;;;;7.97;6.63;;;1.70;99.90;;;;;;4939876;28;20212;-55
2024/01/05 07:56:02;;;;;;;7.33;5.87;;;1.60;99.90;;;;;;4961841;28;20284;-54
2024/01/05 07:58:28;;;;;;;8.87;6.37;;;1.70;99.90;;;;;;4962065;28;20287;-57
2024/01/05 08:00:54;;;;;;;7.60;6.10;;;1.60;99.90;;;;;;4954545;28;20291;-56
2024/01/05 08:03:21;;;;;;;6.53;5.87;;;1.60;99.90;;;;;;4960206;28;20203;-53
2024/01/05 08:05:47;;;;;;;8.93;6.27;;;1.60;99.90;;;;;;4958103;28;20669;-53
2024/01/05 08:08:12;;;;;;;5.87;5.27;;;1.70;99.90;;;;;;4954104;28;20236;-53
2024/01/05 08:10:38;;;;;;;7.93;6.43;;;1.70;99.90;;;;;;4953811;28;20204;-52
2024/01/05 08:13:03;;;;;;;9.53;6.03;;;1.60;99.90;;;;;;4951696;28;20337;-52
2024/01/05 08:15:29;;;;;;;7.83;6.10;;;1.60;99.90;;;;;;4955159;28;20724;-53
2024/01/05 08:17:55;;;;;;;7.80;6.03;;;1.50;99.90;;;;;;4954978;28;20219;-53
2024/01/05 08:20:20;;;;;;;7.40;6.60;;;1.50;99.90;;;;;;4957167;28;20207;-53
2024/01/05 08:22:46;;;;;;;7.27;5.17;;;1.60;99.90;;;;;;4957312;28;20354;-55
2024/01/05 08:25:14;;;;;;;6.77;5.53;;;1.50;99.90;;;;;;4939966;28;20217;-54
2024/01/05 08:27:39;;;;;;;9.83;6.83;;;1.50;99.90;;;;;;4939908;28;20214;-53
2024/01/05 08:30:07;;;;;;;7.77;5.13;;;1.50;99.90;;;;;;4957989;28;20204;-54
2024/01/05 08:32:33;;;;;;;8.00;6.37;;;1.50;99.90;;;;;;4966812;28;20898;-54
2024/01/05 08:34:59;;;;;;;7.30;5.73;;;1.60;99.90;;;;;;4941849;28;20211;-54
2024/01/05 08:37:25;;;;;;;7.57;6.33;;;1.90;99.90;;;;;;4955938;28;20899;-54
2024/01/05 08:39:51;;;;;;;7.07;5.73;;;1.70;99.90;;;;;;4958674;28;20217;-54
2024/01/05 08:42:16;;;;;;;5.97;3.57;;;1.70;99.90;;;;;;4958613;28;20221;-57
2024/01/05 08:44:43;;;;;;;7.47;5.27;;;1.60;99.90;;;;;;4959859;28;20227;-55
2024/01/05 08:47:08;;;;;;;8.47;6.30;;;1.40;99.90;;;;;;4958262;28;20976;-54
2024/01/05 08:49:34;;;;;;;6.63;4.63;;;1.50;99.90;;;;;;4957764;28;20302;-61
2024/01/05 08:52:00;;;;;;;6.93;5.63;;;1.40;99.90;;;;;;4963490;28;20314;-59
2024/01/05 08:54:26;;;;;;;9.93;6.53;;;1.50;99.90;;;;;;4960116;28;20276;-59
2024/01/05 08:56:52;;;;;;;4.77;4.30;;;1.40;99.90;;;;;;4956276;28;20329;-54
2024/01/05 08:59:18;;;;;;;8.03;5.10;;;1.50;99.90;;;;;;4960562;28;20286;-54
2024/01/05 09:01:44;;;;;;;5.93;4.67;;;1.40;99.90;;;;;;4955048;28;20257;-53
2024/01/05 09:04:10;;;;;;;5.00;3.97;;;1.50;99.90;;;;;;4956579;28;20664;-56
2024/01/05 09:06:38;;;;;;;6.17;5.47;;;1.50;99.90;;;;;;4961932;28;20670;-53
2024/01/05 09:09:04;;;;;;;6.80;4.97;;;1.50;99.90;;;;;;4958819;28;20301;-51
2024/01/05 09:11:29;;;;;;;8.47;6.23;;;1.60;99.90;;;;;;4959486;28;20619;-53
2024/01/05 09:13:55;;;;;;;7.07;5.23;;;1.90;99.90;;;;;;4957005;28;20306;-52
2024/01/05 09:16:21;;;;;;;5.93;5.10;;;1.80;99.90;;;;;;4957471;28;20218;-53
2024/01/05 09:18:46;;;;;;;4.67;4.23;;;1.70;99.90;;;;;;4959349;28;20288;-61
2024/01/05 09:21:13;;;;;;;7.57;5.20;;;1.50;99.90;;;;;;4955810;28;20752;-55
2024/01/05 09:23:41;;;;;;;5.70;4.60;;;1.40;99.90;;;;;;4971361;28;20268;-54
2024/01/05 09:26:15;;;;;;;3.93;3.57;;;1.50;99.90;;;;;;4971590;28;20205;-53
2024/01/05 09:28:41;;;;;;;7.07;4.40;;;1.50;99.90;;;;;;4965529;28;20186;-53
2024/01/05 09:31:07;;;;;;;8.17;5.37;;;1.50;99.90;;;;;;4968889;28;20191;-53
2024/01/05 09:33:32;;;;;;;5.00;3.77;;;1.60;99.90;;;;;;4949705;28;20191;-54
2024/01/05 09:35:59;;;;;;;5.93;5.30;;;1.50;99.90;;;;;;4966829;28;20652;-54
2024/01/05 09:38:25;;;;;;;7.17;4.23;;;1.60;99.90;;;;;;4965281;28;20266;-54
2024/01/05 09:40:52;;;;;;;6.93;3.57;;;1.50;99.90;;;;;;4961522;28;20198;-54
2024/01/05 09:43:21;;;;;;;5.23;4.73;;;1.50;99.90;;;;;;4971136;28;20695;-54
2024/01/05 09:45:52;;;;;;;3.10;2.90;;;1.60;99.90;;;;;;4970537;28;20230;-54
2024/01/05 09:48:19;;;;;;;5.77;4.73;;;1.50;99.90;;;;;;4959073;28;20208;-59
2024/01/05 09:50:52;;;;;;;6.03;4.40;;;1.40;99.90;;;;;;4953365;28;20239;-54
2024/01/05 09:53:19;;;;;;;5.20;4.43;;;1.40;99.90;;;;;;4960001;28;20235;-53
2024/01/05 09:55:48;;;;;;;4.80;4.27;;;1.50;99.90;;;;;;4961447;28;20249;-53
2024/01/05 09:58:15;;;;;;;5.07;4.20;;;1.50;99.90;;;;;;4955571;28;20223;-53
2024/01/05 10:00:49;;;;;;;7.20;5.30;;;1.40;99.90;;;;;;4936981;28;20208;-53
2024/01/05 10:03:21;;;;;;;4.53;4.13;;;1.40;99.90;;;;;;4957245;28;20261;-53
2024/01/05 10:05:49;;;;;;;4.77;4.37;;;1.40;99.90;;;;;;4961400;28;20204;-53
2024/01/05 10:08:14;;;;;;;5.47;5.00;;;1.40;99.90;;;;;;4955960;28;20206;-53
2024/01/05 10:10:48;;;;;;;4.57;4.10;;;1.40;99.90;;;;;;4955384;28;20243;-53
2024/01/05 10:13:17;;;;;;;3.93;3.53;;;1.50;99.90;;;;;;4956890;28;20196;-57
2024/01/05 10:15:56;;;;;;;4.83;4.13;;;1.40;99.90;;;;;;4955001;28;20856;-53
2024/01/05 10:18:22;;;;;;;7.20;5.30;;;1.40;99.90;;;;;;4956930;28;20605;-54
2024/01/05 10:20:48;;;;;;;5.00;4.50;;;1.40;99.90;;;;;;4957012;28;20207;-60
2024/01/05 10:23:16;;;;;;;5.90;5.20;;;1.40;99.90;;;;;;4943593;28;20205;-61
2024/01/05 10:25:41;;;;;;;67.20;41.17;;;1.60;99.90;;;;;;4958288;28;20254;-54
2024/01/05 10:28:37;;;;;;;7.60;6.83;;;1.60;99.90;;;;;;4960870;28;20247;-52
2024/01/05 10:31:10;;;;;;;4.40;4.00;;;1.60;99.90;;;;;;4942024;28;20657;-53
2024/01/05 10:33:51;;;;;;;7.00;4.10;;;1.70;99.90;;;;;;4962727;28;20195;-54
2024/01/05 10:36:21;;;;;;;6.27;4.40;;;1.70;99.90;;;;;;4956163;28;20218;-53
2024/01/05 10:38:47;;;;;;;4.77;4.30;;;1.60;99.90;;;;;;4948420;28;20244;-56
2024/01/05 10:41:15;;;;;;;4.27;3.87;;;1.60;99.90;;;;;;4962096;28;20207;-52
2024/01/05 10:43:41;;;;;;;3.97;3.57;;;1.50;99.90;;;;;;4959640;28;20208;-53
2024/01/05 10:46:09;;;;;;;6.90;4.57;;;1.60;99.90;;;;;;4958466;28;20296;-53
2024/01/05 10:48:36;;;;;;;6.70;4.90;;;1.50;99.90;;;;;;4956735;28;20681;-61
2024/01/05 10:51:02;;;;;;;3.83;3.40;;;1.60;99.90;;;;;;4955850;28;20200;-58
2024/01/05 10:53:27;;;;;;;4.20;3.73;;;1.70;99.90;;;;;;4939464;28;20288;-60
2024/01/05 10:55:56;;;;;;;6.60;4.97;;;1.90;99.90;;;;;;4958798;28;20203;-52
2024/01/05 10:58:22;;;;;;;4.40;3.27;;;1.80;99.90;;;;;;4962438;28;20211;-52
2024/01/05 11:00:48;;;;;;;5.57;4.57;;;1.70;99.90;;;;;;4968097;28;20233;-52
2024/01/05 11:03:17;;;;;;;5.00;4.20;;;1.60;99.90;;;;;;4951262;28;20409;-53
2024/01/05 11:05:44;;;;;;;3.93;3.63;;;1.70;99.90;;;;;;4969365;28;20815;-52
2024/01/05 11:08:25;;;;;;;6.27;5.27;;;1.70;99.90;;;;;;4952617;28;20207;-52
2024/01/05 11:11:12;;;;;;;5.00;4.10;;;1.70;99.90;;;;;;4959462;28;20214;-52
2024/01/05 11:13:56;;;;;;;4.80;4.37;;;1.60;99.90;;;;;;4944696;28;20250;-59
2024/01/05 11:16:54;;;;;;;4.57;3.80;;;1.60;99.90;;;;;;4960303;28;20245;-59
2024/01/05 11:19:39;;;;;;;4.67;4.10;;;1.60;99.90;;;;;;4948137;28;20700;-53
2024/01/05 11:22:08;;;;;;;4.43;4.00;;;1.60;99.90;;;;;;4953254;28;20326;-53
2024/01/05 11:24:35;;;;;;;4.10;3.17;;;1.70;99.90;;;;;;4965504;28;20675;-53
2024/01/05 11:27:30;;;;;;;5.27;4.43;;;1.70;99.90;;;;;;4961335;28;20238;-53
2024/01/05 11:29:57;;;;;;;3.53;3.23;;;1.60;99.90;;;;;;4982896;23;20240;-53
2024/01/05 11:32:39;;;;;;;3.90;3.57;;;1.60;99.90;;;;;;4951194;28;20206;-53
2024/01/05 11:35:24;;;;;;;4.83;4.43;;;1.50;99.90;;;;;;4950350;28;20195;-52
2024/01/05 11:37:51;;;;;;;5.20;4.57;;;1.50;99.90;;;;;;4948691;28;20588;-53
2024/01/05 11:40:25;;;;;;;5.67;4.47;;;1.50;99.90;;;;;;4949556;28;20203;-53
2024/01/05 11:42:51;;;;;;;5.03;3.83;;;1.60;99.90;;;;;;4953553;28;20345;-53
2024/01/05 11:45:40;;;;;;;4.37;3.20;;;1.60;99.90;;;;;;4957849;28;20698;-53
2024/01/05 11:48:05;;;;;;;4.90;4.33;;;1.50;99.90;;;;;;4952038;28;20692;-53
2024/01/05 11:50:46;;;;;;;4.87;4.37;;;1.50;99.90;;;;;;4953485;28;20199;-53
2024/01/05 11:53:14;;;;;;;6.60;4.40;;;1.60;99.90;;;;;;4955636;28;20380;-53
2024/01/05 11:55:46;;;;;;;5.93;4.30;;;1.60;99.90;;;;;;4953337;28;20195;-53
2024/01/05 11:58:16;;;;;;;4.07;3.63;;;1.70;99.90;;;;;;4957791;28;20747;-53
2024/01/05 12:00:44;;;;;;;5.23;3.17;;;1.60;99.90;;;;;;4960888;28;20292;-53
2024/01/05 12:03:10;;;;;;;4.83;4.33;;;1.40;99.90;;;;;;4957770;28;20210;-53
2024/01/05 12:05:36;;;;;;;5.17;4.03;;;1.30;99.90;;;;;;4957413;28;20208;-53
2024/01/05 12:08:02;;;;;;;5.40;4.57;;;1.40;99.90;;;;;;4959210;28;20671;-53
2024/01/05 12:10:28;;;;;;;5.67;5.17;;;1.40;99.90;;;;;;4953065;28;20200;-53
2024/01/05 12:12:57;;;;;;;7.17;6.10;;;1.40;99.90;;;;;;4956767;28;20206;-53
2024/01/05 12:15:25;;;;;;;6.17;5.20;;;1.40;99.90;;;;;;4958185;28;20204;-52
2024/01/05 12:18:01;;;;;;;6.10;5.03;;;1.50;99.90;;;;;;4956927;28;20730;-53
2024/01/05 12:20:27;;;;;;;5.70;5.17;;;1.60;99.90;;;;;;4953844;28;20203;-53
2024/01/05 12:22:53;;;;;;;3.87;3.47;;;1.60;99.90;;;;;;4961383;28;20209;-53
2024/01/05 12:25:19;;;;;;;7.00;5.10;;;1.60;99.90;;;;;;4957541;28;20508;-54
2024/01/05 12:27:44;;;;;;;7.90;4.23;;;1.60;99.90;;;;;;4956445;28;20240;-53
2024/01/05 12:30:11;;;;;;;5.80;4.43;;;1.60;99.90;;;;;;4958981;28;20243;-53
2024/01/05 12:32:36;;;;;;;6.20;4.67;;;1.40;99.90;;;;;;4955535;28;20265;-53
2024/01/05 12:35:04;;;;;;;7.10;5.67;;;1.40;99.90;;;;;;4958038;28;20237;-53
2024/01/05 12:37:30;;;;;;;5.50;5.00;;;1.50;99.90;;;;;;4959431;28;20242;-53
2024/01/05 12:40:12;;;;;;;5.80;5.17;;;1.60;99.90;;;;;;4958224;28;20207;-54
2024/01/05 12:42:38;;;;;;;4.50;4.10;;;1.60;99.90;;;;;;4956915;28;20213;-53
2024/01/05 12:45:08;;;;;;;4.60;4.20;;;1.70;99.90;;;;;;4957062;28;20253;-53
2024/01/05 12:47:34;;;;;;;5.70;4.90;;;1.70;99.90;;;;;;4958434;28;20264;-53
2024/01/05 12:50:03;;;;;;;5.40;4.90;;;1.80;99.90;;;;;;4956972;28;20199;-53
2024/01/05 12:52:37;;;;;;;6.60;5.97;;;1.80;99.90;;;;;;4960690;28;20674;-52
2024/01/05 12:55:05;;;;;;;6.80;5.20;;;1.70;99.90;;;;;;4958843;28;20200;-52
2024/01/05 12:57:32;;;;;;;7.00;4.97;;;1.60;99.90;;;;;;4955729;28;20636;-52